Time;durP1;ratioP1;P1;durP2;ratioP2;P2;SDS_P1;SDS_P2;PMS_P1;PMS_P2;Temp;Humidity;BMP_temperature;BMP_pressure;BME280_temperature;BME280_humidity;BME280_pressure;Samples;Min_cycle;Max_cycle;Signal;HPM_P1;HPM_P2
2022/04/22 00:00:24;;;;;;;11.05;6.05;;;;;;;7.23;81.83;97623.44;4995014;28;20037;-63
2022/04/22 00:02:49;;;;;;;12.70;5.95;;;;;;;7.30;81.39;97623.41;4993028;28;20113;-63
2022/04/22 00:05:15;;;;;;;12.52;6.20;;;;;;;7.22;81.43;97618.25;4997860;28;20027;-64
2022/04/22 00:07:40;;;;;;;16.42;6.32;;;;;;;6.99;82.37;97591.81;4993117;28;20476;-63
2022/04/22 00:10:08;;;;;;;9.63;6.10;;;;;;;7.02;82.82;97621.81;4992946;28;20018;-64
2022/04/22 00:12:33;;;;;;;10.57;6.03;;;;;;;6.98;82.63;97609.81;4991179;28;20118;-64
2022/04/22 00:14:58;;;;;;;9.77;6.32;;;;;;;6.84;83.43;97615.41;4994688;28;20145;-64
2022/04/22 00:17:24;;;;;;;11.60;6.57;;;;;;;6.80;84.01;97615.84;4988057;28;20480;-64
2022/04/22 00:19:49;;;;;;;10.90;6.35;;;;;;;6.59;84.74;97594.56;4996695;28;20109;-64
2022/04/22 00:22:14;;;;;;;11.98;7.00;;;;;;;6.77;84.45;97613.56;4995517;28;20435;-64
2022/04/22 00:24:40;;;;;;;13.10;6.55;;;;;;;6.67;85.15;97606.97;4992914;28;20435;-64
2022/04/22 00:27:05;;;;;;;10.73;6.70;;;;;;;6.65;85.97;97604.47;4990949;28;20022;-64
2022/04/22 00:29:30;;;;;;;12.07;6.93;;;;;;;6.64;85.48;97600.16;4998299;28;20109;-63
2022/04/22 00:31:55;;;;;;;12.40;7.18;;;;;;;6.43;85.91;97574.31;4997560;28;20027;-64
2022/04/22 00:34:21;;;;;;;14.32;7.95;;;;;;;6.62;86.55;97610.28;4993169;28;20522;-64
2022/04/22 00:36:46;;;;;;;11.10;7.13;;;;;;;6.68;86.23;97606.78;4989324;28;20049;-63
2022/04/22 00:39:12;;;;;;;13.20;8.15;;;;;;;6.76;85.53;97595.81;4992839;28;20037;-64
2022/04/22 00:41:37;;;;;;;14.82;7.63;;;;;;;6.73;85.82;97590.84;4989536;28;20108;-65
2022/04/22 00:44:03;;;;;;;12.30;7.57;;;;;;;6.68;85.44;97579.03;4998635;28;20395;-64
2022/04/22 00:46:28;;;;;;;13.38;7.57;;;;;;;6.68;85.33;97576.34;4998683;28;20097;-65
2022/04/22 00:48:54;;;;;;;12.77;7.60;;;;;;;6.98;84.74;97591.00;4991003;28;20041;-63
2022/04/22 00:51:21;;;;;;;14.77;8.40;;;;;;;6.96;84.50;97589.56;4992048;28;20022;-63
2022/04/22 00:53:49;;;;;;;12.77;7.10;;;;;;;6.97;83.61;97596.59;4991943;28;20109;-65
2022/04/22 00:56:14;;;;;;;15.35;8.95;;;;;;;7.02;84.07;97596.78;4996698;28;20026;-63
2022/04/22 00:58:42;;;;;;;13.90;7.25;;;;;;;7.04;83.40;97583.94;4993026;28;20026;-64
2022/04/22 01:01:08;;;;;;;12.75;7.55;;;;;;;6.88;83.85;97592.47;4991084;28;20057;-63
2022/04/22 01:03:33;;;;;;;12.55;7.88;;;;;;;6.94;84.18;97602.38;4993306;28;20050;-64
2022/04/22 01:11:32;;;;;;;13.60;8.35;;;;;;;7.17;82.53;97567.78;4990524;28;20057;-64
2022/04/22 01:14:01;;;;;;;18.30;9.80;;;;;;;7.30;82.49;97584.91;4995067;28;20026;-64
2022/04/22 01:16:26;;;;;;;13.75;8.00;;;;;;;7.02;82.68;97584.16;4987969;28;20026;-64
2022/04/22 01:18:52;;;;;;;13.02;8.05;;;;;;;6.68;84.98;97571.84;4991888;28;20030;-64
2022/04/22 01:21:18;;;;;;;14.27;8.00;;;;;;;6.49;86.04;97573.47;4993514;28;20112;-64
2022/04/22 01:23:43;;;;;;;14.40;8.35;;;;;;;6.37;87.45;97580.53;4990481;28;20033;-64
2022/04/22 01:26:09;;;;;;;14.30;8.48;;;;;;;6.26;87.70;97576.59;4989033;28;20030;-64
2022/04/22 01:28:35;;;;;;;13.68;8.98;;;;;;;6.17;88.40;97577.81;4991285;28;20026;-64
2022/04/22 01:31:01;;;;;;;16.17;9.10;;;;;;;5.96;89.46;97548.47;4984668;28;20038;-64
2022/04/22 01:33:26;;;;;;;14.75;8.82;;;;;;;6.08;89.07;97566.47;4992796;28;20018;-64
2022/04/22 01:35:52;;;;;;;14.50;8.85;;;;;;;6.00;89.46;97558.59;4991776;28;20062;-64
2022/04/22 01:38:17;;;;;;;13.73;8.57;;;;;;;5.98;90.19;97552.63;4991819;28;20515;-64
2022/04/22 01:40:42;;;;;;;15.63;9.23;;;;;;;5.98;90.33;97555.28;4990271;28;20054;-64
2022/04/22 01:43:08;;;;;;;20.80;9.00;;;;;;;5.93;90.00;97547.84;4994539;28;20050;-64
2022/04/22 01:45:34;;;;;;;13.50;8.43;;;;;;;5.85;90.27;97550.69;4995855;28;20030;-64
2022/04/22 01:47:59;;;;;;;14.23;8.60;;;;;;;5.80;91.36;97555.03;4991937;28;20026;-64
2022/04/22 01:50:24;;;;;;;16.83;9.80;;;;;;;5.95;91.06;97546.81;4990278;28;20019;-64
2022/04/22 01:52:49;;;;;;;16.30;10.40;;;;;;;5.96;91.67;97548.47;4997955;28;20479;-64
2022/04/22 01:55:15;;;;;;;18.63;10.27;;;;;;;6.02;91.94;97539.59;4992522;28;20029;-64
2022/04/22 01:57:41;;;;;;;15.85;10.05;;;;;;;6.16;91.31;97552.00;4992405;28;20483;-64
2022/04/22 02:00:07;;;;;;;15.45;10.15;;;;;;;6.10;89.52;97542.94;4989021;28;20046;-64
2022/04/22 02:02:33;;;;;;;14.60;9.40;;;;;;;6.10;89.80;97525.97;5017020;22;20093;-65
2022/04/22 02:04:59;;;;;;;21.10;9.70;;;;;;;5.99;89.97;97530.09;4995484;28;20077;-66
2022/04/22 02:07:24;;;;;;;15.65;9.20;;;;;;;5.93;90.84;97529.06;5025519;28;20029;-66
2022/04/22 02:09:49;;;;;;;14.00;9.60;;;;;;;5.82;91.93;97536.88;5031540;28;20032;-66
2022/04/22 02:12:15;;;;;;;19.00;10.95;;;;;;;5.64;93.26;97524.03;5005996;28;20028;-65
2022/04/22 02:14:40;;;;;;;20.33;10.43;;;;;;;5.50;94.22;97507.06;5020622;28;20095;-66
2022/04/22 02:17:06;;;;;;;19.95;11.20;;;;;;;5.55;94.26;97528.75;5034405;28;20071;-66
2022/04/22 02:19:31;;;;;;;18.05;10.65;;;;;;;5.53;94.87;97514.72;5038667;28;20016;-66
2022/04/22 02:21:57;;;;;;;18.35;11.07;;;;;;;5.44;95.75;97518.63;5035247;28;20026;-66
2022/04/22 02:24:22;;;;;;;22.38;12.02;;;;;;;5.42;95.56;97520.66;5023259;28;20025;-66
2022/04/22 02:29:31;;;;;;;18.10;10.82;;;;;;;5.23;96.43;97516.91;5023867;28;20088;-67
2022/04/22 02:31:56;;;;;;;19.20;11.25;;;;;;;5.13;97.40;97511.09;5015780;28;20502;-67
2022/04/22 02:34:23;;;;;;;19.45;10.52;;;;;;;5.19;97.34;97515.66;5006011;28;20029;-67
2022/04/22 02:36:50;;;;;;;17.20;10.25;;;;;;;5.15;96.35;97509.03;4999872;28;20044;-67
2022/04/22 02:39:16;;;;;;;17.00;10.20;;;;;;;5.08;96.46;97508.16;5031778;28;20043;-66
2022/04/22 02:47:09;;;;;;;22.63;11.82;;;;;;;4.99;98.87;97486.09;5027713;28;20087;-67
2022/04/22 02:49:35;;;;;;;22.75;11.70;;;;;;;5.14;98.37;97504.72;5035785;28;20422;-66
2022/04/22 02:52:01;;;;;;;23.45;11.85;;;;;;;5.11;98.36;97491.69;5023559;28;20120;-67
2022/04/22 02:54:29;;;;;;;18.98;11.48;;;;;;;5.03;98.23;97493.53;5022146;28;20018;-67
2022/04/22 02:56:55;;;;;;;21.83;11.43;;;;;;;4.96;98.77;97492.66;5026572;28;20028;-67
2022/04/22 02:59:20;;;;;;;23.80;12.13;;;;;;;4.88;98.81;97492.84;5046257;28;20120;-67
2022/04/22 03:01:46;;;;;;;21.17;12.02;;;;;;;4.79;99.79;97491.34;5029282;28;20025;-67
2022/04/22 03:04:12;;;;;;;21.05;11.55;;;;;;;4.67;99.40;97482.25;5031320;28;20342;-66
2022/04/22 03:06:37;;;;;;;19.92;10.68;;;;;;;4.50;100.00;97479.03;5048485;28;20100;-67
2022/04/22 03:09:03;;;;;;;21.23;11.65;;;;;;;4.37;100.00;97471.75;5043387;28;20022;-66
2022/04/22 03:11:29;;;;;;;17.45;11.00;;;;;;;4.33;100.00;97465.16;5021770;28;20376;-67
2022/04/22 03:13:54;;;;;;;24.00;11.95;;;;;;;4.25;100.00;97463.44;5028152;28;20056;-66
2022/04/22 03:16:24;;;;;;;23.45;11.55;;;;;;;4.56;100.00;97476.41;5020770;28;20292;-67
2022/04/22 03:18:50;;;;;;;23.13;12.00;;;;;;;4.57;100.00;97471.88;5032734;28;20025;-67
2022/04/22 03:21:15;;;;;;;21.20;12.27;;;;;;;4.35;100.00;97449.72;5028832;28;20427;-67
2022/04/22 03:23:41;;;;;;;24.83;13.10;;;;;;;4.51;100.00;97473.50;5033173;28;20037;-67
2022/04/22 03:26:06;;;;;;;20.40;11.77;;;;;;;4.36;100.00;97470.94;5015448;28;20108;-66
2022/04/22 03:28:31;;;;;;;24.67;12.95;;;;;;;4.29;100.00;97458.53;5025382;28;20054;-66
2022/04/22 03:30:57;;;;;;;28.25;13.25;;;;;;;4.24;100.00;97466.31;5037746;28;20021;-66
2022/04/22 03:33:22;;;;;;;25.25;12.88;;;;;;;4.20;100.00;97462.38;5019169;28;20030;-66
2022/04/22 03:35:51;;;;;;;26.88;15.05;;;;;;;4.14;100.00;97461.31;5050051;28;20124;-67
2022/04/22 03:38:18;;;;;;;27.00;14.18;;;;;;;4.10;100.00;97460.88;5037446;28;20435;-66
2022/04/22 03:40:44;;;;;;;26.25;13.75;;;;;;;4.03;100.00;97460.00;5023751;28;20060;-66
2022/04/22 03:43:10;;;;;;;21.33;12.68;;;;;;;4.02;100.00;97461.03;5021255;28;20045;-67
2022/04/22 03:45:36;;;;;;;28.90;14.82;;;;;;;3.95;100.00;97447.59;5032366;28;20029;-66
2022/04/22 03:48:05;;;;;;;30.13;15.30;;;;;;;3.92;100.00;97447.16;5028076;28;20022;-71
2022/04/22 03:50:30;;;;;;;29.00;14.20;;;;;;;3.76;100.00;97412.66;5019303;28;20032;-70
2022/04/22 03:52:55;;;;;;;26.40;14.40;;;;;;;3.98;100.00;97445.53;5020252;28;20025;-71
2022/04/22 03:55:21;;;;;;;29.52;14.38;;;;;;;4.15;100.00;97447.72;5008706;28;20548;-69
2022/04/22 04:00:30;;;;;;;28.23;14.75;;;;;;;4.04;100.00;97450.13;5020181;28;20067;-70
2022/04/22 04:02:55;;;;;;;28.00;15.27;;;;;;;4.11;100.00;97446.50;5017429;28;20030;-73
2022/04/22 04:05:20;;;;;;;25.23;14.25;;;;;;;4.08;100.00;97443.34;5013087;28;20474;-71
2022/04/22 04:07:46;;;;;;;27.30;14.30;;;;;;;4.11;100.00;97445.63;5021935;28;20399;-70
2022/04/22 04:15:59;;;;;;;33.97;16.45;;;;;;;3.88;100.00;97430.66;5027299;28;20029;-70
2022/04/22 04:18:26;;;;;;;31.60;17.15;;;;;;;3.90;100.00;97444.69;5005398;28;20056;-70
2022/04/22 04:23:35;;;;;;;27.25;15.20;;;;;;;3.97;100.00;97460.78;5019198;28;20032;-74
2022/04/22 04:26:01;;;;;;;28.17;13.90;;;;;;;3.96;100.00;97469.84;5013806;28;20022;-67
2022/04/22 04:28:29;;;;;;;28.52;15.38;;;;;;;3.90;100.00;97467.91;5016948;28;20432;-68
2022/04/22 04:30:55;;;;;;;31.08;15.82;;;;;;;3.75;100.00;97468.03;5017683;28;20021;-74
2022/04/22 04:33:21;;;;;;;27.73;15.63;;;;;;;3.79;100.00;97481.84;5022659;28;20041;-70
2022/04/22 04:35:47;;;;;;;33.92;16.85;;;;;;;3.77;100.00;97475.84;5018743;28;20029;-71
2022/04/22 04:38:15;;;;;;;32.47;15.90;;;;;;;3.73;100.00;97454.84;5025517;28;20067;-72
2022/04/22 04:40:41;;;;;;;32.95;17.10;;;;;;;3.88;100.00;97475.34;5018487;28;20052;-72
2022/04/22 04:43:06;;;;;;;32.65;15.77;;;;;;;4.00;100.00;97471.09;5026640;28;20056;-71
2022/04/22 04:45:35;;;;;;;28.73;15.90;;;;;;;4.10;100.00;97466.22;5032119;28;20030;-74
2022/04/22 04:48:00;;;;;;;32.58;15.93;;;;;;;4.17;100.00;97460.94;5024453;28;20135;-72
2022/04/22 04:50:26;;;;;;;31.52;17.20;;;;;;;4.27;100.00;97465.91;5007512;28;20030;-72
2022/04/22 04:52:51;;;;;;;31.45;16.58;;;;;;;4.32;100.00;97461.66;5020527;28;20036;-74
2022/04/22 04:55:16;;;;;;;28.95;16.08;;;;;;;4.39;100.00;97464.34;4995369;28;20502;-68
2022/04/22 04:57:45;;;;;;;30.75;15.85;;;;;;;4.47;100.00;97472.22;5017473;28;20420;-68
2022/04/22 05:00:13;;;;;;;29.58;15.60;;;;;;;4.46;100.00;97454.50;5026153;28;20234;-71
2022/04/22 05:02:38;;;;;;;28.30;15.57;;;;;;;4.66;100.00;97467.16;5023220;28;20116;-69
2022/04/22 05:05:06;;;;;;;32.05;16.40;;;;;;;4.86;100.00;97473.47;5022186;28;20152;-64
2022/04/22 05:07:46;;;;;;;27.83;16.30;;;;;;;4.82;100.00;97462.31;5020759;28;20072;-69
2022/04/22 05:10:11;;;;;;;28.48;14.55;;;;;;;4.89;100.00;97458.81;5017174;28;20336;-70
2022/04/22 05:12:36;;;;;;;29.02;15.27;;;;;;;5.08;100.00;97467.97;5012394;28;20022;-72
2022/04/22 05:15:02;;;;;;;27.05;15.43;;;;;;;5.20;100.00;97455.63;5022172;28;20064;-71
2022/04/22 05:17:27;;;;;;;26.83;15.25;;;;;;;5.57;99.60;97456.94;5023116;28;20408;-64
2022/04/22 05:19:52;;;;;;;30.45;16.00;;;;;;;5.82;99.52;97459.03;5015456;28;20033;-65
2022/04/22 05:22:17;;;;;;;28.67;15.77;;;;;;;5.78;95.39;97457.78;5029207;28;20025;-65
2022/04/22 05:24:43;;;;;;;23.27;13.65;;;;;;;5.89;94.29;97452.66;5026695;28;20549;-64
2022/04/22 05:27:08;;;;;;;24.83;13.85;;;;;;;5.84;93.51;97452.44;5009212;28;20065;-67
2022/04/22 05:35:01;;;;;;;25.23;14.48;;;;;;;6.19;90.72;97464.84;5032615;28;20044;-70
2022/04/22 05:37:26;;;;;;;25.73;14.13;;;;;;;6.25;90.79;97454.06;5025211;28;20025;-71
2022/04/22 05:39:51;;;;;;;25.25;14.20;;;;;;;6.26;89.32;97450.38;5029181;28;20017;-72
2022/04/22 05:42:17;;;;;;;23.88;14.15;;;;;;;6.58;88.44;97461.25;5027437;28;20589;-71
2022/04/22 05:44:42;;;;;;;28.73;14.35;;;;;;;6.87;89.04;97448.34;5026361;28;20025;-70
2022/04/22 05:47:07;;;;;;;30.20;15.18;;;;;;;7.01;88.36;97439.16;5022632;28;21055;-71
2022/04/22 05:49:33;;;;;;;24.73;13.57;;;;;;;7.32;85.99;97433.00;4999872;28;20033;-70
2022/04/22 05:51:58;;;;;;;27.10;15.20;;;;;;;7.98;83.37;97453.22;5026128;28;20074;-71
2022/04/22 05:54:23;;;;;;;25.20;12.55;;;;;;;8.42;80.35;97432.53;5021808;28;20112;-69
2022/04/22 05:56:49;;;;;;;27.00;14.57;;;;;;;8.79;78.19;97443.34;5002311;28;20032;-70
2022/04/22 05:59:14;;;;;;;22.95;13.25;;;;;;;9.61;75.18;97450.97;5017014;28;20025;-63
2022/04/22 06:01:39;;;;;;;23.42;13.10;;;;;;;10.81;69.60;97448.97;5015914;28;20041;-64
2022/04/22 06:04:05;;;;;;;22.58;12.93;;;;;;;11.82;65.02;97447.41;5013494;28;20033;-69
2022/04/22 06:06:30;;;;;;;23.83;13.68;;;;;;;13.28;59.17;97434.66;5024928;28;20486;-69
2022/04/22 06:11:40;;;;;;;21.95;13.13;;;;;;;15.97;51.49;97438.47;5033942;28;20137;-70
2022/04/22 06:14:05;;;;;;;18.30;11.95;;;;;;;16.33;49.00;97435.78;5041797;28;20025;-71
2022/04/22 06:16:30;;;;;;;21.40;13.48;;;;;;;15.75;50.23;97432.47;5037214;28;20029;-73
2022/04/22 06:18:56;;;;;;;18.98;12.63;;;;;;;14.61;51.80;97441.25;5036367;28;20017;-71
2022/04/22 06:21:21;;;;;;;19.35;13.50;;;;;;;13.70;56.01;97428.56;5022665;28;20029;-74
2022/04/22 06:23:47;;;;;;;22.17;13.95;;;;;;;14.63;53.59;97424.66;5035382;28;20052;-72
2022/04/22 06:26:12;;;;;;;23.05;14.45;;;;;;;15.02;50.87;97430.59;5017383;28;20028;-74
2022/04/22 06:28:37;;;;;;;20.60;13.95;;;;;;;13.53;56.02;97425.94;5035777;28;20041;-72
2022/04/22 06:31:03;;;;;;;23.33;14.52;;;;;;;13.66;55.95;97427.41;5034348;28;20048;-70
2022/04/22 06:33:29;;;;;;;21.00;13.25;;;;;;;15.43;52.54;97416.28;5040877;28;20029;-74
2022/04/22 06:35:56;;;;;;;20.23;13.55;;;;;;;17.57;46.89;97411.63;4999915;28;20033;-71
2022/04/22 06:38:22;;;;;;;19.40;12.95;;;;;;;18.00;44.18;97406.41;5033076;28;20052;-72
2022/04/22 06:46:16;;;;;;;18.55;12.23;;;;;;;19.78;39.54;97391.84;5019333;28;20033;-73
2022/04/22 06:48:43;;;;;;;18.80;12.18;;;;;;;20.05;39.25;97397.44;5029824;28;20022;-70
2022/04/22 06:51:09;;;;;;;16.08;11.52;;;;;;;20.10;38.79;97410.28;5037991;28;20083;-69
2022/04/22 06:53:36;;;;;;;16.48;11.68;;;;;;;20.62;38.46;97405.56;5023316;28;20030;-70
2022/04/22 06:56:03;;;;;;;16.42;10.10;;;;;;;20.94;37.12;97395.63;5009058;28;20099;-70
2022/04/22 06:58:37;;;;;;;16.05;10.95;;;;;;;21.71;36.15;97402.28;5027646;28;20040;-71
2022/04/22 07:01:03;;;;;;;16.05;11.40;;;;;;;22.15;35.09;97406.19;5027472;28;20028;-71
2022/04/22 07:03:28;;;;;;;17.10;10.55;;;;;;;21.71;35.18;97408.59;5028523;28;20097;-72
2022/04/22 07:05:54;;;;;;;15.68;11.77;;;;;;;22.27;35.16;97395.47;5029053;28;20075;-72
2022/04/22 07:08:20;;;;;;;14.55;10.57;;;;;;;21.76;35.59;97397.47;5034806;28;20051;-71
2022/04/22 07:10:50;;;;;;;15.43;10.55;;;;;;;21.92;35.52;97397.91;5047064;28;20013;-71
2022/04/22 07:13:18;;;;;;;14.27;11.13;;;;;;;22.21;33.94;97399.47;5028356;28;20033;-71
2022/04/22 07:15:50;;;;;;;14.95;10.68;;;;;;;22.64;33.59;97388.69;5028779;28;20108;-75
2022/04/22 07:18:16;;;;;;;15.35;11.30;;;;;;;23.53;32.51;97383.19;5027176;28;20112;-68
2022/04/22 07:20:42;;;;;;;12.10;10.07;;;;;;;24.67;30.23;97377.25;5029762;28;20112;-75
2022/04/22 07:23:09;;;;;;;13.43;9.77;;;;;;;24.36;30.63;97376.66;5025049;28;20603;-72
2022/04/22 07:25:35;;;;;;;15.15;10.45;;;;;;;25.10;30.52;97373.50;5017439;28;20080;-68
2022/04/22 07:28:01;;;;;;;14.95;10.73;;;;;;;24.44;30.86;97381.34;5034730;28;20488;-68
2022/04/22 07:30:26;;;;;;;13.38;10.43;;;;;;;24.18;31.48;97382.25;5037577;28;20122;-68
2022/04/22 07:32:52;;;;;;;13.27;10.55;;;;;;;24.23;31.08;97378.47;5026264;28;20363;-68
2022/04/22 07:35:21;;;;;;;13.15;10.70;;;;;;;23.98;31.69;97374.63;5015735;28;20033;-68
2022/04/22 07:37:49;;;;;;;14.90;10.20;;;;;;;24.41;30.54;97373.72;5031386;28;20380;-69
2022/04/22 07:40:16;;;;;;;11.82;9.52;;;;;;;25.36;29.57;97369.78;5019297;28;20056;-70
2022/04/22 07:48:18;;;;;;;12.82;10.10;;;;;;;26.70;27.90;97370.78;5029026;28;20043;-70
2022/04/22 07:50:46;;;;;;;12.32;9.80;;;;;;;25.50;28.73;97377.88;5027614;28;20032;-70
2022/04/22 07:53:12;;;;;;;11.77;9.48;;;;;;;26.39;27.62;97370.13;5023757;28;20025;-70
2022/04/22 07:55:37;;;;;;;11.27;9.48;;;;;;;25.95;28.62;97369.72;5021492;28;20036;-70
2022/04/22 07:58:02;;;;;;;12.52;10.02;;;;;;;26.32;28.18;97366.28;5029145;28;20033;-71
2022/04/22 08:00:28;;;;;;;10.95;8.95;;;;;;;26.76;27.03;97367.47;5001997;28;20030;-73
2022/04/22 08:02:53;;;;;;;13.35;9.95;;;;;;;25.16;28.73;97342.91;5059595;23;20009;-71
2022/04/22 08:05:18;;;;;;;12.07;10.27;;;;;;;25.33;29.13;97359.41;4988836;28;20484;-71
2022/04/22 08:07:43;;;;;;;12.70;9.15;;;;;;;26.98;26.87;97360.66;4988468;28;20028;-67
2022/04/22 08:10:09;;;;;;;10.07;8.60;;;;;;;27.51;26.91;97352.44;4988877;28;20534;-70
2022/04/22 08:12:34;;;;;;;10.65;8.30;;;;;;;26.25;28.01;97355.75;4966886;28;20027;-65
2022/04/22 08:15:03;;;;;;;12.93;9.55;;;;;;;25.94;27.77;97351.47;4986684;28;21453;-70
2022/04/22 08:17:36;;;;;;;10.05;8.50;;;;;;;25.81;28.23;97352.53;4980499;28;20030;-74
2022/04/22 08:20:02;;;;;;;11.20;8.90;;;;;;;27.11;25.98;97353.13;5000293;28;20026;-70
2022/04/22 08:22:28;;;;;;;9.48;7.75;;;;;;;27.39;25.82;97331.03;4991426;28;20038;-69
2022/04/22 08:24:53;;;;;;;10.25;9.13;;;;;;;27.66;25.98;97350.88;4973075;28;20030;-65
2022/04/22 08:27:18;;;;;;;10.00;8.25;;;;;;;27.36;26.74;97337.31;4987901;28;20426;-68
2022/04/22 08:29:44;;;;;;;11.10;8.93;;;;;;;28.41;25.58;97341.94;4985271;28;20122;-65
2022/04/22 08:32:09;;;;;;;11.73;8.50;;;;;;;27.81;25.63;97354.94;4983990;28;20503;-63
2022/04/22 08:34:34;;;;;;;12.50;8.77;;;;;;;28.41;25.17;97353.06;4992689;28;20029;-64
2022/04/22 08:37:00;;;;;;;11.20;7.47;;;;;;;29.20;25.27;97347.56;4992899;28;20109;-65
2022/04/22 08:39:26;;;;;;;10.93;8.88;;;;;;;28.02;24.85;97347.22;4977784;28;20037;-67
2022/04/22 08:41:52;;;;;;;10.07;8.73;;;;;;;29.14;25.03;97339.84;4990468;28;20023;-73
2022/04/22 08:44:20;;;;;;;9.23;8.07;;;;;;;28.45;25.34;97330.91;4986134;28;20030;-75
2022/04/22 08:52:15;;;;;;;10.40;8.63;;;;;;;28.02;25.42;97330.53;4987165;28;20028;-69
2022/04/22 08:54:43;;;;;;;9.57;8.48;;;;;;;29.14;24.74;97329.53;4982255;28;20026;-65
2022/04/22 08:57:09;;;;;;;9.52;7.80;;;;;;;30.25;24.55;97325.56;4993737;28;20030;-68
2022/04/22 08:59:35;;;;;;;9.63;7.97;;;;;;;29.61;25.49;97325.00;4985804;28;20117;-67
2022/04/22 09:02:01;;;;;;;9.45;8.20;;;;;;;29.54;24.27;97311.72;4987734;28;20116;-69
2022/04/22 09:04:26;;;;;;;11.05;8.88;;;;;;;29.15;25.34;97319.97;4979249;28;20077;-64
2022/04/22 09:06:53;;;;;;;8.82;7.43;;;;;;;29.61;25.60;97320.25;4991913;28;20121;-69
2022/04/22 09:09:18;;;;;;;10.13;8.57;;;;;;;28.99;25.60;97327.53;4986780;28;20065;-66
2022/04/22 09:11:44;;;;;;;11.18;8.13;;;;;;;29.73;24.99;97313.72;4982383;28;20492;-77
2022/04/22 09:14:14;;;;;;;8.45;7.32;;;;;;;29.11;25.39;97319.13;4966862;28;20026;-70
2022/04/22 09:16:41;;;;;;;11.20;8.27;;;;;;;30.03;25.07;97296.44;4989637;28;20026;-65
2022/04/22 09:19:06;;;;;;;9.73;8.38;;;;;;;29.34;25.75;97310.88;4993317;28;20030;-68
2022/04/22 09:21:31;;;;;;;9.82;7.85;;;;;;;30.26;24.55;97316.00;4998415;28;20022;-65
2022/04/22 09:24:11;;;;;;;10.32;8.52;;;;;;;29.80;24.90;97304.72;4984768;28;20031;-66
2022/04/22 09:26:36;;;;;;;12.18;9.15;;;;;;;29.30;24.76;97300.84;4979080;28;20041;-66
2022/04/22 09:29:05;;;;;;;10.32;8.57;;;;;;;28.27;26.10;97305.38;4982413;28;20034;-66
2022/04/22 09:31:47;;;;;;;9.45;8.25;;;;;;;28.93;25.80;97296.38;5002717;28;20113;-66
2022/04/22 09:34:13;;;;;;;10.55;8.30;;;;;;;29.31;25.33;97275.38;4978766;28;20194;-71
2022/04/22 09:44:56;;;;;;;13.65;8.35;;;;;;;28.73;26.70;97273.22;4980404;28;20404;-69
2022/04/22 09:47:25;;;;;;;13.50;9.25;;;;;;;27.99;27.08;97260.94;4981813;28;21670;-71
2022/04/22 09:49:51;;;;;;;11.60;9.02;;;;;;;26.64;28.08;97273.91;4992896;28;20077;-67
2022/04/22 09:52:24;;;;;;;9.57;8.27;;;;;;;26.52;28.11;97270.34;4986552;28;20065;-66
2022/04/22 09:55:01;;;;;;;10.57;8.95;;;;;;;27.72;27.49;97278.06;4983904;28;20030;-69
2022/04/22 09:57:28;;;;;;;14.80;8.60;;;;;;;27.34;28.00;97247.16;4986158;28;20391;-68
2022/04/22 09:59:54;;;;;;;10.98;8.70;;;;;;;27.68;26.97;97270.78;4991862;28;20026;-68
2022/04/22 10:02:21;;;;;;;11.75;7.95;;;;;;;28.67;26.19;97238.47;4994041;28;20068;-68
2022/04/22 10:04:48;;;;;;;10.85;8.95;;;;;;;28.44;26.19;97263.34;4979380;28;20527;-66
2022/04/22 10:07:16;;;;;;;10.38;8.30;;;;;;;29.37;25.81;97257.22;4988293;28;20033;-67
2022/04/22 10:09:44;;;;;;;9.27;8.13;;;;;;;28.20;26.58;97255.94;4987772;28;20033;-66
2022/04/22 10:12:12;;;;;;;9.15;7.63;;;;;;;29.74;24.88;97254.03;4990827;28;20518;-63
2022/04/22 10:14:39;;;;;;;12.15;8.68;;;;;;;28.36;26.30;97267.09;4976228;28;20138;-64
2022/04/22 10:17:05;;;;;;;9.90;8.45;;;;;;;29.03;25.86;97265.19;4985583;28;20521;-62
2022/04/22 10:19:34;;;;;;;12.35;8.57;;;;;;;28.26;26.57;97260.06;5000484;28;20532;-64
2022/04/22 10:22:01;;;;;;;10.25;8.48;;;;;;;27.50;26.90;97264.69;4999236;28;20508;-63
2022/04/22 10:24:28;;;;;;;9.30;8.30;;;;;;;27.85;27.67;97248.28;4980720;28;20472;-63
2022/04/22 10:26:53;;;;;;;9.85;8.70;;;;;;;27.27;28.35;97254.13;4993622;28;20081;-63
2022/04/22 10:29:20;;;;;;;10.93;9.13;;;;;;;26.88;27.58;97255.63;5003395;28;20478;-63
2022/04/22 10:31:47;;;;;;;12.48;9.57;;;;;;;26.56;27.74;97246.28;4988257;28;20458;-63
2022/04/22 10:34:12;;;;;;;10.57;8.80;;;;;;;27.50;27.68;97253.59;4980943;28;20030;-64
2022/04/22 10:36:40;;;;;;;12.20;8.48;;;;;;;28.52;27.09;97254.00;4981158;28;20695;-64
2022/04/22 10:39:05;;;;;;;12.00;8.85;;;;;;;29.00;25.71;97249.22;4977931;28;20030;-64
2022/04/22 10:41:45;;;;;;;13.10;8.75;;;;;;;28.32;26.15;97244.75;4977254;28;20041;-62
2022/04/22 10:47:13;;;;;;;11.20;8.70;;;;;;;29.35;25.63;97239.25;4984769;28;20400;-64
2022/04/22 10:49:45;;;;;;;9.77;7.15;;;;;;;30.84;24.31;97239.66;4987434;28;20121;-64
2022/04/22 10:52:17;;;;;;;10.05;8.27;;;;;;;29.18;25.12;97241.28;4984392;28;20023;-64
2022/04/22 10:54:52;;;;;;;13.40;8.50;;;;;;;27.76;26.39;97244.78;4983372;28;20036;-63
2022/04/22 10:57:23;;;;;;;11.32;8.52;;;;;;;28.29;26.24;97236.31;4988634;28;20059;-64
2022/04/22 11:00:00;;;;;;;15.65;8.32;;;;;;;29.15;25.81;97230.88;4998379;28;20022;-63
2022/04/22 11:02:30;;;;;;;10.25;8.10;;;;;;;29.17;25.72;97241.66;4983282;28;20033;-64
2022/04/22 11:05:20;;;;;;;11.05;8.75;;;;;;;28.95;25.13;97235.56;4983134;28;20039;-64
2022/04/22 11:07:53;;;;;;;9.35;8.15;;;;;;;28.92;25.43;97227.91;4992523;28;20018;-63
2022/04/22 11:10:19;;;;;;;8.90;7.90;;;;;;;29.96;24.24;97230.16;4995027;28;20018;-66
2022/04/22 11:12:58;;;;;;;9.70;7.13;;;;;;;30.46;24.02;97217.13;4977833;28;20026;-67
2022/04/22 11:15:42;;;;;;;;;;;;;;;30.55;24.90;97217.69;4983048;28;20102;-66
2022/04/22 11:18:08;;;;;;;7.00;6.30;;;;;;;31.70;23.43;97213.72;4989607;28;19913;-65
2022/04/22 11:20:57;;;;;;;10.68;8.13;;;;;;;29.81;24.21;97212.34;5006264;28;20478;-67
2022/04/22 11:23:23;;;;;;;7.75;6.78;;;;;;;31.14;24.07;97211.78;4975582;28;20038;-65
2022/04/22 11:25:51;;;;;;;9.77;8.30;;;;;;;30.20;24.37;97215.03;4985776;28;20411;-66
2022/04/22 11:28:19;;;;;;;10.77;7.28;;;;;;;30.41;23.74;97211.06;4984593;28;20030;-64
2022/04/22 11:30:44;;;;;;;8.68;7.05;;;;;;;30.57;23.72;97200.53;4977730;28;20126;-66
2022/04/22 11:33:22;;;;;;;6.50;5.82;;;;;;;31.28;24.61;97197.19;4984832;28;20109;-64
2022/04/22 11:35:57;;;;;;;;;;;;;;;28.58;25.54;97202.50;4981087;28;20030;-65
2022/04/22 11:38:23;;;;;;;9.18;7.25;;;;;;;29.18;25.49;97202.28;4985736;28;19916;-67
2022/04/22 11:40:51;;;;;;;8.70;7.70;;;;;;;28.69;25.51;97199.97;4982888;28;20088;-65
2022/04/22 11:43:18;;;;;;;9.65;7.80;;;;;;;26.12;28.75;97215.47;4972646;28;20049;-65
2022/04/22 11:45:49;;;;;;;8.73;7.78;;;;;;;26.96;27.84;97201.16;4977138;28;20097;-64
2022/04/22 11:48:19;;;;;;;9.85;8.38;;;;;;;27.23;27.34;97200.44;4979849;28;20060;-64
2022/04/22 11:50:46;;;;;;;10.20;8.38;;;;;;;27.07;27.18;97202.31;4986272;28;20069;-63
2022/04/22 11:53:26;;;;;;;9.00;7.63;;;;;;;27.70;26.76;97194.22;4998373;28;20030;-64
2022/04/22 11:55:52;;;;;;;17.05;7.95;;;;;;;28.08;28.32;97187.31;4981702;28;20502;-64
2022/04/22 11:58:27;;;;;;;12.23;8.35;;;;;;;28.29;25.75;97194.56;4993435;28;20044;-63
2022/04/22 12:06:22;;;;;;;9.57;7.63;;;;;;;29.01;24.50;97180.41;4987116;28;20075;-60
2022/04/22 12:08:54;;;;;;;8.85;7.68;;;;;;;28.87;24.18;97185.63;4976719;28;20105;-60
2022/04/22 12:11:21;;;;;;;8.00;7.20;;;;;;;27.36;25.49;97180.97;4987438;28;20452;-62
2022/04/22 12:13:48;;;;;;;8.43;7.55;;;;;;;25.52;28.45;97162.34;4977476;28;20712;-62
2022/04/22 12:16:24;;;;;;;10.93;7.60;;;;;;;24.66;29.95;97193.13;4985632;28;20088;-62
2022/04/22 12:18:51;;;;;;;16.10;7.80;;;;;;;23.70;32.18;97184.34;4983670;28;20041;-61
2022/04/22 12:21:18;;;;;;;10.55;8.18;;;;;;;25.27;29.87;97189.13;4978969;28;20025;-62
2022/04/22 12:23:45;;;;;;;11.00;8.60;;;;;;;26.99;28.02;97175.50;4981662;28;20832;-63
2022/04/22 12:26:19;;;;;;;9.95;7.80;;;;;;;27.92;27.19;97162.28;4980549;28;20057;-64
2022/04/22 12:28:58;;;;;;;8.88;7.57;;;;;;;28.39;24.90;97166.22;4987275;28;20081;-62
2022/04/22 12:31:25;;;;;;;8.70;6.80;;;;;;;27.97;25.62;97180.66;4984739;28;20523;-61